Time;durP1;ratioP1;P1;durP2;ratioP2;P2;SDS_P1;SDS_P2;PMS_P1;PMS_P2;Temp;Humidity;BMP_temperature;BMP_pressure;BME280_temperature;BME280_humidity;BME280_pressure;Samples;Min_cycle;Max_cycle;Signal;HPM_P1;HPM_P2
2022/01/15 00:02:07;;;;;;;3.22;1.90;;;27.50;69.70;;;;;;4140665;28;20035;-73
2022/01/15 00:04:30;;;;;;;4.63;2.20;;;27.50;69.60;;;;;;4151294;28;20453;-71
2022/01/15 00:06:52;;;;;;;3.90;2.33;;;27.50;69.60;;;;;;4146840;28;20604;-70
2022/01/15 00:09:15;;;;;;;5.38;2.28;;;27.50;69.60;;;;;;4148771;28;20030;-71
2022/01/15 00:11:38;;;;;;;8.63;2.75;;;27.60;70.30;;;;;;4153344;28;20038;-71
2022/01/15 00:14:22;;;;;;;3.85;2.45;;;27.60;69.50;;;;;;4149235;28;20117;-72
2022/01/15 00:16:46;;;;;;;4.18;2.33;;;27.60;69.30;;;;;;4146208;28;20101;-71
2022/01/15 00:19:11;;;;;;;4.10;2.50;;;27.60;69.20;;;;;;4146797;28;20037;-71
2022/01/15 00:21:34;;;;;;;7.05;2.60;;;27.60;69.10;;;;;;4151461;28;20065;-71
2022/01/15 00:23:56;;;;;;;3.45;2.20;;;27.60;69.10;;;;;;4145378;28;20033;-71
2022/01/15 00:26:19;;;;;;;4.18;2.67;;;27.60;69.00;;;;;;4152021;28;20041;-70
2022/01/15 00:28:42;;;;;;;4.22;2.20;;;27.50;69.60;;;;;;4137068;28;20117;-72
2022/01/15 00:31:04;;;;;;;3.83;2.30;;;27.50;68.90;;;;;;4147671;28;20045;-71
2022/01/15 00:33:29;;;;;;;3.47;2.20;;;27.50;68.90;;;;;;4146378;28;20057;-71
2022/01/15 00:35:52;;;;;;;4.15;2.40;;;27.50;68.90;;;;;;4140119;28;20161;-71
2022/01/15 00:38:18;;;;;;;4.00;2.33;;;27.50;68.90;;;;;;4142786;28;20042;-70
2022/01/15 00:40:41;;;;;;;5.20;2.50;;;27.50;68.90;;;;;;4139829;28;20563;-71
2022/01/15 00:43:03;;;;;;;3.85;2.30;;;27.50;68.90;;;;;;4147818;28;20091;-71
2022/01/15 00:45:29;;;;;;;3.58;2.83;;;27.50;69.00;;;;;;4148173;28;20081;-71
2022/01/15 00:47:52;;;;;;;4.03;2.33;;;27.50;68.90;;;;;;4148860;28;20029;-71
2022/01/15 00:50:15;;;;;;;5.72;2.42;;;27.50;69.00;;;;;;4147326;28;20397;-69
2022/01/15 00:52:37;;;;;;;3.25;2.20;;;27.50;68.90;;;;;;4147677;28;20049;-68
2022/01/15 00:55:00;;;;;;;4.45;2.47;;;27.50;69.00;;;;;;4147522;28;20038;-72
2022/01/15 00:57:23;;;;;;;3.27;2.17;;;27.50;68.90;;;;;;4145399;28;20088;-71
2022/01/15 00:59:45;;;;;;;3.85;2.47;;;27.50;68.90;;;;;;4135333;28;20046;-70
2022/01/15 01:02:08;;;;;;;3.75;2.13;;;27.50;68.90;;;;;;4142150;28;20048;-72
2022/01/15 01:04:30;;;;;;;3.85;2.30;;;27.50;69.00;;;;;;4154787;28;20036;-70
2022/01/15 01:06:59;;;;;;;2.80;1.98;;;27.50;68.90;;;;;;4153592;28;20175;-70
2022/01/15 01:09:24;;;;;;;3.13;2.15;;;27.50;68.90;;;;;;4155049;28;20117;-73
2022/01/15 01:11:54;;;;;;;6.43;2.17;;;27.50;68.80;;;;;;4144986;28;20128;-68
2022/01/15 01:24:59;;;;;;;4.75;2.42;;;27.70;68.50;;;;;;4154075;28;20041;-70
2022/01/15 01:27:29;;;;;;;4.88;2.50;;;27.70;68.40;;;;;;4146283;28;20048;-73
2022/01/15 01:30:09;;;;;;;5.28;2.30;;;27.80;68.30;;;;;;4157955;28;20467;-76
2022/01/15 01:35:04;;;;;;;3.45;2.35;;;27.80;68.20;;;;;;4151832;28;20114;-71
2022/01/15 01:37:35;;;;;;;4.07;2.30;;;27.80;68.40;;;;;;4148774;28;20103;-73
2022/01/15 01:40:16;;;;;;;3.58;2.38;;;27.80;68.40;;;;;;4149130;28;20099;-72
2022/01/15 01:42:43;;;;;;;4.55;2.25;;;27.80;68.40;;;;;;4147181;28;20065;-72
2022/01/15 01:45:11;;;;;;;3.42;2.33;;;27.90;68.40;;;;;;4147985;28;20056;-73
2022/01/15 01:47:43;;;;;;;4.72;2.20;;;27.90;68.30;;;;;;4152981;28;20124;-72
2022/01/15 01:50:15;;;;;;;4.05;2.40;;;27.90;68.20;;;;;;4137599;28;20088;-73
2022/01/15 01:52:38;;;;;;;3.38;2.35;;;27.90;68.10;;;;;;4153397;28;20076;-73
2022/01/15 01:55:00;;;;;;;3.70;2.30;;;27.90;68.10;;;;;;4152676;28;20074;-72
2022/01/15 01:57:23;;;;;;;3.42;2.38;;;27.90;68.00;;;;;;4148869;28;20061;-72
2022/01/15 01:59:46;;;;;;;5.32;2.40;;;27.90;67.90;;;;;;4147229;28;20030;-73
2022/01/15 02:02:08;;;;;;;4.18;2.20;;;28.00;67.90;;;;;;4143748;28;20463;-73
2022/01/15 02:04:31;;;;;;;4.30;2.40;;;28.00;68.20;;;;;;4148538;28;20082;-73
2022/01/15 02:06:53;;;;;;;3.33;2.00;;;28.00;68.60;;;;;;4145084;28;20057;-72
2022/01/15 02:09:17;;;;;;;4.82;2.47;;;28.10;69.10;;;;;;4145665;28;20033;-76
2022/01/15 02:11:42;;;;;;;4.82;2.25;;;28.10;69.60;;;;;;4149496;28;20442;-76
2022/01/15 02:14:04;;;;;;;3.05;2.03;;;28.10;69.90;;;;;;4146088;28;20053;-71
2022/01/15 02:16:27;;;;;;;4.60;2.15;;;28.10;70.20;;;;;;4146045;28;20045;-71
2022/01/15 02:18:58;;;;;;;3.88;2.20;;;28.20;70.40;;;;;;4147238;28;20072;-72
2022/01/15 02:26:54;;;;;;;4.72;2.40;;;28.20;70.20;;;;;;4145231;28;20054;-75
2022/01/15 02:29:20;;;;;;;5.45;2.30;;;28.30;70.90;;;;;;4145311;28;20037;-72
2022/01/15 02:31:48;;;;;;;4.50;2.40;;;28.30;70.70;;;;;;4146152;28;20528;-74
2022/01/15 02:34:11;;;;;;;7.78;2.70;;;28.30;70.90;;;;;;4147648;28;20112;-74
2022/01/15 02:36:36;;;;;;;7.03;2.50;;;28.40;70.90;;;;;;4145649;28;20049;-77
2022/01/15 02:38:59;;;;;;;6.03;2.40;;;28.40;70.90;;;;;;4149259;28;20072;-74
2022/01/15 02:41:35;;;;;;;4.85;2.40;;;28.40;70.80;;;;;;4144673;28;20050;-77
2022/01/15 02:44:00;;;;;;;5.13;2.67;;;28.40;70.20;;;;;;4144785;28;20148;-71
2022/01/15 02:49:04;;;;;;;6.15;2.33;;;28.50;70.80;;;;;;4144083;28;20044;-71
2022/01/15 02:51:31;;;;;;;4.82;2.40;;;28.50;71.40;;;;;;4148882;28;20042;-70
2022/01/15 02:53:57;;;;;;;4.85;2.15;;;28.50;70.60;;;;;;4148532;28;20045;-72
2022/01/15 02:56:19;;;;;;;8.13;2.50;;;28.50;70.50;;;;;;4146732;28;20038;-70
2022/01/15 02:58:45;;;;;;;4.13;2.15;;;28.60;71.30;;;;;;4144504;28;20046;-73
2022/01/15 03:01:26;;;;;;;;;;;;;;;;;;;;;
2022/01/15 03:04:09;;;;;;;4.20;2.17;;;28.60;70.70;;;;;;4151602;28;20044;-71
2022/01/15 03:06:56;;;;;;;6.85;2.47;;;28.60;70.50;;;;;;4145425;28;20095;-72
2022/01/15 03:09:50;;;;;;;3.38;2.13;;;28.60;70.60;;;;;;4135310;28;20038;-74
2022/01/15 03:12:34;;;;;;;;;;;28.70;70.90;;;;;;4132497;28;20041;-73
2022/01/15 03:15:19;;;;;;;2.90;1.98;;;28.70;71.00;;;;;;4134301;28;20719;-73
2022/01/15 03:17:45;;;;;;;3.40;2.15;;;28.70;71.00;;;;;;4130220;28;20112;-74
2022/01/15 03:20:20;;;;;;;3.50;2.13;;;28.70;71.00;;;;;;4145656;28;20446;-74
2022/01/15 03:22:46;;;;;;;4.40;2.50;;;28.70;71.00;;;;;;4148388;28;20048;-74
2022/01/15 03:25:29;;;;;;;3.25;2.30;;;28.80;71.00;;;;;;4138544;28;20060;-76
2022/01/15 03:27:51;;;;;;;3.85;2.63;;;28.80;71.00;;;;;;4134129;28;20032;-71
2022/01/15 03:30:14;;;;;;;5.00;2.58;;;28.90;71.00;;;;;;4147024;28;20039;-72
2022/01/15 03:32:42;;;;;;;8.50;2.50;;;28.90;71.10;;;;;;4150927;28;20125;-71
2022/01/15 03:35:08;;;;;;;2.75;2.30;;;28.90;71.00;;;;;;4137574;28;20065;-71
2022/01/15 03:37:30;;;;;;;4.43;2.20;;;28.90;70.90;;;;;;4135171;28;20881;-71
2022/01/15 03:39:53;;;;;;;4.38;2.33;;;28.90;70.90;;;;;;4147477;28;20112;-70
2022/01/15 03:42:15;;;;;;;2.67;2.03;;;29.00;70.90;;;;;;4150153;28;20040;-72
2022/01/15 03:44:40;;;;;;;3.45;2.10;;;29.00;70.70;;;;;;4149056;28;20044;-71
2022/01/15 03:47:03;;;;;;;4.30;2.70;;;29.00;70.80;;;;;;4149866;28;20113;-75
2022/01/15 03:49:25;;;;;;;5.25;2.53;;;29.10;70.70;;;;;;4144221;28;20128;-74
2022/01/15 03:51:48;;;;;;;4.97;2.60;;;29.10;70.80;;;;;;4146693;28;20050;-71
2022/01/15 03:54:10;;;;;;;3.78;2.63;;;29.20;70.90;;;;;;4145258;28;20064;-70
2022/01/15 03:56:33;;;;;;;4.45;2.60;;;29.10;70.80;;;;;;4146828;28;20040;-70
2022/01/15 03:58:55;;;;;;;4.70;2.50;;;29.20;70.90;;;;;;4146382;28;20039;-72
2022/01/15 04:01:18;;;;;;;3.78;2.33;;;29.30;70.80;;;;;;4139329;28;20052;-70
2022/01/15 04:03:41;;;;;;;3.88;2.40;;;29.20;70.60;;;;;;4145526;28;20064;-69
2022/01/15 04:06:03;;;;;;;4.28;2.50;;;29.30;70.60;;;;;;4137896;28;20046;-68
2022/01/15 04:08:25;;;;;;;3.65;2.45;;;29.30;70.40;;;;;;4147101;28;20232;-71
2022/01/15 04:10:48;;;;;;;4.38;2.50;;;29.40;70.30;;;;;;4145516;28;20095;-69
2022/01/15 04:13:11;;;;;;;3.72;2.20;;;29.40;70.00;;;;;;4149201;28;20037;-70
2022/01/15 04:15:35;;;;;;;5.35;2.85;;;29.40;69.80;;;;;;4154213;28;20037;-69
2022/01/15 04:17:59;;;;;;;3.83;2.53;;;29.40;69.30;;;;;;4133774;28;20069;-69
2022/01/15 04:20:28;;;;;;;6.32;2.78;;;29.50;69.70;;;;;;4144872;28;20045;-71
2022/01/15 04:22:52;;;;;;;4.47;2.40;;;29.60;69.70;;;;;;4149217;28;20044;-70
2022/01/15 04:25:16;;;;;;;5.35;2.50;;;29.60;69.70;;;;;;4149613;28;20041;-70
2022/01/15 04:27:39;;;;;;;4.13;2.40;;;29.70;69.70;;;;;;4150522;28;20204;-71
2022/01/15 04:30:03;;;;;;;2.83;2.00;;;29.70;69.60;;;;;;4138280;28;20124;-72
2022/01/15 04:32:26;;;;;;;4.50;2.78;;;29.70;69.00;;;;;;4145322;28;20068;-73
2022/01/15 04:34:48;;;;;;;3.63;2.28;;;29.80;69.70;;;;;;4147109;28;20042;-74
2022/01/15 04:37:15;;;;;;;5.13;2.50;;;29.80;69.80;;;;;;4136189;28;20092;-71
2022/01/15 04:39:39;;;;;;;7.72;2.80;;;29.90;69.30;;;;;;4149245;28;20048;-70
2022/01/15 04:42:02;;;;;;;10.57;2.55;;;29.90;69.20;;;;;;4144358;28;20049;-73
2022/01/15 04:44:24;;;;;;;5.10;3.00;;;30.00;69.20;;;;;;4148045;28;20097;-70
2022/01/15 04:46:47;;;;;;;4.07;2.13;;;30.00;69.10;;;;;;4142626;28;20084;-69
2022/01/15 04:49:09;;;;;;;5.93;2.20;;;30.10;69.10;;;;;;4144556;28;20033;-71
2022/01/15 04:51:33;;;;;;;6.45;2.35;;;30.10;69.00;;;;;;4146358;28;20388;-70
2022/01/15 04:53:55;;;;;;;3.15;2.25;;;30.20;68.90;;;;;;4146548;28;20498;-68
2022/01/15 04:56:18;;;;;;;4.90;2.20;;;30.20;68.90;;;;;;4130084;28;20761;-71
2022/01/15 04:58:40;;;;;;;3.75;2.30;;;30.30;69.10;;;;;;4148372;28;20041;-69
2022/01/15 05:01:03;;;;;;;4.00;2.47;;;30.30;69.10;;;;;;4146511;28;20044;-69
2022/01/15 05:03:25;;;;;;;4.53;2.10;;;30.40;69.10;;;;;;4150107;28;20045;-68
2022/01/15 05:05:48;;;;;;;3.35;1.95;;;30.40;69.20;;;;;;4144279;28;20476;-69
2022/01/15 05:08:12;;;;;;;3.90;2.35;;;30.30;69.30;;;;;;4144733;28;20029;-69
2022/01/15 05:10:35;;;;;;;3.38;2.05;;;30.40;69.20;;;;;;4146801;28;20115;-69
2022/01/15 05:13:00;;;;;;;3.08;2.08;;;30.40;69.20;;;;;;4145172;28;20043;-70
2022/01/15 05:15:23;;;;;;;4.40;2.47;;;30.40;69.10;;;;;;4148899;28;20100;-70
2022/01/15 05:17:48;;;;;;;4.35;2.38;;;30.40;69.30;;;;;;4148710;28;20945;-71
2022/01/15 05:20:16;;;;;;;4.15;2.05;;;30.40;68.90;;;;;;4136826;28;20120;-70
2022/01/15 05:22:39;;;;;;;3.97;2.15;;;30.40;68.70;;;;;;4147699;28;20041;-71
2022/01/15 05:25:03;;;;;;;5.40;2.53;;;30.40;68.50;;;;;;4149669;28;20382;-69
2022/01/15 05:27:26;;;;;;;3.53;1.80;;;30.40;68.20;;;;;;4150286;28;20504;-72
2022/01/15 05:29:48;;;;;;;4.72;2.40;;;30.40;68.10;;;;;;4150243;28;20483;-70
2022/01/15 05:32:11;;;;;;;3.90;2.33;;;30.30;67.90;;;;;;4152205;28;20052;-70
2022/01/15 05:34:33;;;;;;;3.95;2.38;;;30.40;68.60;;;;;;4150516;28;20109;-69
2022/01/15 05:36:56;;;;;;;3.47;2.10;;;30.30;68.20;;;;;;4152531;28;20089;-71
2022/01/15 05:39:18;;;;;;;4.57;2.00;;;30.40;68.50;;;;;;4149165;28;20044;-69
2022/01/15 05:41:41;;;;;;;4.47;2.33;;;30.40;68.50;;;;;;4149698;28;20112;-71
2022/01/15 05:44:04;;;;;;;3.33;2.40;;;30.30;69.00;;;;;;4149336;28;20033;-71
2022/01/15 05:46:26;;;;;;;3.53;2.05;;;30.40;69.50;;;;;;4151084;28;20041;-74
2022/01/15 05:48:49;;;;;;;3.03;2.00;;;30.40;69.50;;;;;;4152329;28;20057;-74
2022/01/15 06:17:16;;;;;;;4.78;2.33;;;30.40;70.60;;;;;;4127450;28;20056;-77
2022/01/15 06:19:54;;;;;;;4.80;2.25;;;30.50;70.40;;;;;;4138026;28;20033;-76
2022/01/15 06:22:17;;;;;;;4.85;2.10;;;30.50;70.30;;;;;;4132738;28;20046;-74
2022/01/15 06:24:39;;;;;;;4.07;2.00;;;30.60;70.10;;;;;;4134882;28;20043;-75
2022/01/15 06:27:02;;;;;;;4.10;2.00;;;30.60;70.00;;;;;;4122231;28;20129;-74
2022/01/15 06:29:25;;;;;;;3.97;1.97;;;30.60;69.70;;;;;;4130257;28;21169;-75
2022/01/15 06:31:52;;;;;;;3.20;2.10;;;30.70;69.40;;;;;;4133521;28;20286;-76
2022/01/15 06:34:15;;;;;;;3.50;1.83;;;30.60;69.00;;;;;;4138240;28;20584;-78
2022/01/15 06:36:37;;;;;;;4.03;2.10;;;30.60;68.80;;;;;;4141708;28;20052;-75
2022/01/15 06:39:00;;;;;;;3.75;2.08;;;30.60;68.70;;;;;;4131662;28;20150;-78
2022/01/15 06:41:26;;;;;;;4.00;1.83;;;30.60;68.50;;;;;;4138529;28;20049;-75
2022/01/15 06:43:51;;;;;;;4.60;2.33;;;30.60;68.50;;;;;;4137491;28;20203;-74
2022/01/15 06:46:14;;;;;;;4.70;1.92;;;30.60;68.90;;;;;;4140690;28;20120;-75
2022/01/15 06:48:36;;;;;;;4.33;2.23;;;30.60;69.30;;;;;;4132129;28;20038;-74
2022/01/15 06:50:59;;;;;;;3.63;2.00;;;30.60;69.60;;;;;;4139610;28;20041;-75
2022/01/15 06:53:25;;;;;;;5.15;2.45;;;30.70;69.90;;;;;;4142034;28;20050;-72
2022/01/15 06:55:52;;;;;;;3.75;2.00;;;30.70;70.00;;;;;;4139265;28;20068;-75
2022/01/15 06:58:14;;;;;;;4.82;2.03;;;30.80;69.90;;;;;;4134028;28;20034;-75
2022/01/15 07:00:37;;;;;;;6.40;2.53;;;30.80;70.00;;;;;;4101835;28;20038;-78
2022/01/15 07:03:02;;;;;;;5.95;3.92;;;30.80;67.00;;;;;;4111425;28;20595;-82
2022/01/15 07:05:25;;;;;;;11.80;7.78;;;30.70;62.10;;;;;;4120482;28;20431;-77
2022/01/15 07:07:49;;;;;;;11.40;10.18;;;30.50;59.60;;;;;;4122752;28;20030;-76
2022/01/15 07:10:12;;;;;;;14.38;12.25;;;30.20;57.90;;;;;;4107849;28;20162;-73
2022/01/15 07:12:34;;;;;;;16.23;14.35;;;29.90;56.90;;;;;;4122579;28;20038;-72
2022/01/15 07:15:00;;;;;;;17.70;15.60;;;29.60;56.50;;;;;;4121006;28;20094;-72
2022/01/15 07:17:22;;;;;;;19.40;15.98;;;29.40;55.80;;;;;;4135254;28;20054;-76
2022/01/15 07:19:45;;;;;;;19.83;17.80;;;29.10;55.10;;;;;;4120843;28;20496;-75
2022/01/15 07:22:08;;;;;;;20.98;18.70;;;28.90;54.80;;;;;;4130068;28;20045;-73
2022/01/15 07:24:33;;;;;;;21.17;18.92;;;28.70;54.80;;;;;;4078140;28;20358;-72
2022/01/15 07:26:56;;;;;;;23.20;19.40;;;28.60;54.60;;;;;;4122531;28;20147;-71
2022/01/15 07:29:19;;;;;;;20.98;18.33;;;28.50;56.00;;;;;;4134817;28;20037;-70
2022/01/15 07:31:42;;;;;;;19.80;17.70;;;28.30;54.50;;;;;;4129900;28;20041;-72
2022/01/15 07:34:04;;;;;;;;;;;28.20;54.20;;;;;;4129652;28;20046;-73
2022/01/15 07:36:29;;;;;;;18.00;16.10;;;28.10;54.00;;;;;;4130027;28;19914;-71
2022/01/15 07:38:52;;;;;;;16.80;14.98;;;28.00;54.30;;;;;;4131920;28;20513;-72
2022/01/15 07:41:14;;;;;;;14.15;12.75;;;27.80;54.10;;;;;;4115483;28;20128;-73
2022/01/15 07:43:39;;;;;;;14.38;12.43;;;27.70;54.20;;;;;;4130732;28;20038;-72
2022/01/15 07:46:05;;;;;;;12.57;10.65;;;27.50;54.10;;;;;;4117387;28;20056;-72
2022/01/15 07:48:27;;;;;;;13.88;10.30;;;27.40;54.70;;;;;;4132180;28;20038;-73
2022/01/15 07:50:50;;;;;;;12.52;10.40;;;27.50;56.20;;;;;;4134601;28;20038;-70
2022/01/15 07:53:13;;;;;;;12.38;9.77;;;27.60;57.30;;;;;;4137101;28;20037;-71
2022/01/15 07:55:36;;;;;;;10.90;8.97;;;27.70;58.20;;;;;;4132353;28;20121;-71
2022/01/15 07:58:04;;;;;;;11.25;9.15;;;27.80;58.80;;;;;;4130657;28;20102;-71
2022/01/15 08:00:27;;;;;;;9.52;8.18;;;27.90;59.20;;;;;;4127267;28;20149;-70
2022/01/15 08:02:49;;;;;;;11.75;8.70;;;28.00;59.80;;;;;;4128424;28;20042;-70
2022/01/15 08:05:12;;;;;;;10.45;8.38;;;28.10;60.20;;;;;;4137630;28;20591;-73
2022/01/15 08:07:35;;;;;;;10.15;8.18;;;28.20;60.60;;;;;;4136140;28;20422;-72
2022/01/15 08:09:58;;;;;;;9.57;7.82;;;28.20;60.80;;;;;;4133234;28;20034;-72
2022/01/15 08:12:22;;;;;;;9.87;8.10;;;28.30;61.00;;;;;;4130130;28;20049;-72
2022/01/15 08:14:44;;;;;;;9.38;7.32;;;28.30;61.20;;;;;;4129653;28;20284;-73
2022/01/15 08:17:41;;;;;;;10.48;7.95;;;28.40;61.40;;;;;;4119062;28;20189;-73
2022/01/15 08:20:04;;;;;;;9.57;7.43;;;28.40;61.60;;;;;;4117053;28;20141;-72
2022/01/15 08:22:52;;;;;;;9.77;7.40;;;28.40;61.80;;;;;;4120946;28;20839;-73
2022/01/15 08:25:20;;;;;;;7.53;5.93;;;28.50;62.00;;;;;;4116127;28;20054;-72
2022/01/15 08:28:32;;;;;;;9.63;7.03;;;28.50;62.20;;;;;;4116693;28;20416;-76
2022/01/15 08:37:44;;;;;;;9.07;6.18;;;28.60;62.50;;;;;;4038135;29;20049;-73
2022/01/15 08:43:24;;;;;;;8.80;6.10;;;28.70;62.80;;;;;;4041482;29;20044;-72
2022/01/15 08:49:06;;;;;;;8.90;6.20;;;28.70;63.00;;;;;;4073969;29;20054;-71
2022/01/15 08:51:35;;;;;;;8.73;6.45;;;28.70;63.10;;;;;;4109905;28;20109;-71
2022/01/15 08:54:21;;;;;;;7.93;6.40;;;28.80;63.20;;;;;;4121588;28;20071;-71
2022/01/15 08:57:07;;;;;;;8.95;5.78;;;28.80;63.00;;;;;;4121558;28;20062;-72
2022/01/15 08:59:51;;;;;;;8.80;6.07;;;28.80;63.00;;;;;;4116346;28;20054;-71
2022/01/15 09:02:17;;;;;;;;;;;28.90;63.00;;;;;;4120810;28;20039;-72
2022/01/15 09:04:55;;;;;;;8.52;6.13;;;28.80;62.90;;;;;;4119142;28;19910;-71
2022/01/15 09:07:23;;;;;;;9.10;6.47;;;28.90;63.00;;;;;;4126299;28;20571;-72
2022/01/15 09:09:55;;;;;;;9.23;6.53;;;28.90;63.10;;;;;;4125716;28;20058;-76
2022/01/15 09:12:22;;;;;;;8.10;5.80;;;28.90;63.10;;;;;;4126822;28;20531;-75
2022/01/15 09:14:44;;;;;;;8.85;5.75;;;28.90;63.10;;;;;;4124447;28;20128;-77
2022/01/15 09:17:07;;;;;;;9.00;5.45;;;28.90;63.20;;;;;;4106511;28;20113;-76
2022/01/15 09:19:29;;;;;;;8.90;5.78;;;29.00;63.30;;;;;;4130864;28;20130;-75
2022/01/15 09:21:52;;;;;;;8.55;6.18;;;29.00;63.30;;;;;;4114280;28;20039;-75
2022/01/15 09:24:14;;;;;;;8.18;6.03;;;29.00;63.40;;;;;;4128722;28;20042;-75
2022/01/15 09:31:59;;;;;;;7.60;5.90;;;29.10;63.50;;;;;;4116683;28;20073;-76
2022/01/15 09:34:22;;;;;;;8.75;5.63;;;29.10;63.60;;;;;;4122064;28;20034;-76
2022/01/15 09:36:44;;;;;;;7.93;5.38;;;29.10;63.60;;;;;;4122432;28;20041;-77
2022/01/15 09:39:07;;;;;;;7.65;5.25;;;29.10;63.70;;;;;;4112327;28;20050;-75
2022/01/15 09:41:31;;;;;;;7.32;5.72;;;29.10;63.90;;;;;;4118372;28;20073;-76
2022/01/15 09:43:54;;;;;;;8.20;6.13;;;29.10;63.30;;;;;;4107717;28;20054;-76
2022/01/15 09:46:18;;;;;;;8.60;5.70;;;29.10;63.90;;;;;;4113717;28;20129;-76
2022/01/15 09:48:43;;;;;;;7.60;5.03;;;29.10;64.00;;;;;;4106642;28;20042;-76
2022/01/15 09:51:06;;;;;;;8.90;5.40;;;29.10;64.60;;;;;;4115434;28;20043;-76
2022/01/15 09:53:28;;;;;;;7.43;5.50;;;29.10;64.10;;;;;;4111641;28;20038;-76
2022/01/15 09:55:52;;;;;;;11.67;5.50;;;29.10;64.10;;;;;;4120914;28;20042;-75
2022/01/15 09:58:15;;;;;;;;;;;29.10;64.20;;;;;;4123526;28;20046;-77
2022/01/15 10:00:37;;;;;;;8.13;5.20;;;29.10;64.20;;;;;;4116670;28;19921;-75
2022/01/15 10:03:00;;;;;;;7.53;5.55;;;29.20;64.40;;;;;;4120788;28;20532;-75
2022/01/15 10:05:23;;;;;;;7.85;5.22;;;29.20;64.50;;;;;;4107889;28;20045;-71
2022/01/15 10:08:03;;;;;;;7.60;5.60;;;29.20;64.50;;;;;;4119396;28;20050;-73
2022/01/15 10:10:27;;;;;;;6.68;4.93;;;29.20;65.20;;;;;;4122906;28;20046;-71
2022/01/15 10:12:53;;;;;;;7.10;5.15;;;29.20;64.70;;;;;;4119503;28;20035;-71
2022/01/15 10:15:17;;;;;;;8.07;4.72;;;29.20;65.40;;;;;;4126452;28;20044;-72
2022/01/15 10:17:41;;;;;;;6.60;5.40;;;29.20;64.80;;;;;;4140575;28;20464;-74
2022/01/15 10:20:25;;;;;;;7.18;4.70;;;29.20;65.00;;;;;;4134246;28;20038;-72
2022/01/15 10:22:52;;;;;;;8.35;4.95;;;29.20;65.00;;;;;;4138014;28;20041;-71
2022/01/15 10:25:24;;;;;;;7.03;4.90;;;29.20;65.00;;;;;;4140604;28;20128;-72
2022/01/15 10:28:09;;;;;;;;;;;;;;;;;;;;;
2022/01/15 10:30:47;;;;;;;6.82;4.63;;;29.20;65.00;;;;;;4136780;28;20123;-71
2022/01/15 10:33:13;;;;;;;6.40;4.70;;;29.20;65.20;;;;;;4131591;28;20046;-73
2022/01/15 10:36:12;;;;;;;8.05;4.43;;;29.20;65.30;;;;;;4134906;28;20038;-72
2022/01/15 10:39:06;;;;;;;8.52;5.00;;;29.20;65.40;;;;;;4132381;28;20037;-73
2022/01/15 10:41:47;;;;;;;7.50;4.30;;;29.20;65.30;;;;;;4130726;28;20085;-72
2022/01/15 10:44:33;;;;;;;6.65;4.55;;;29.20;65.10;;;;;;4125277;28;20048;-73
2022/01/15 10:47:12;;;;;;;8.18;4.28;;;29.20;65.30;;;;;;4123689;28;20128;-71
2022/01/15 10:49:37;;;;;;;6.28;4.47;;;29.20;65.40;;;;;;4122311;28;20448;-73
2022/01/15 10:52:08;;;;;;;6.35;4.35;;;29.20;65.40;;;;;;4139262;28;20042;-71
2022/01/15 10:54:31;;;;;;;6.55;4.35;;;29.20;65.50;;;;;;4137395;28;20030;-70
2022/01/15 10:57:10;;;;;;;6.63;4.63;;;29.20;65.50;;;;;;4132446;28;20066;-71
2022/01/15 10:59:32;;;;;;;6.00;4.13;;;29.20;65.40;;;;;;4124436;28;20042;-73
2022/01/15 11:01:56;;;;;;;7.53;4.60;;;29.20;65.40;;;;;;4139603;28;20129;-72
2022/01/15 11:04:34;;;;;;;6.38;4.47;;;29.20;66.10;;;;;;4138890;28;20252;-72
2022/01/15 11:07:14;;;;;;;8.40;4.75;;;29.20;65.40;;;;;;4134049;28;20058;-72
2022/01/15 11:09:37;;;;;;;6.22;4.65;;;29.20;65.50;;;;;;4140087;28;20043;-75
2022/01/15 11:12:00;;;;;;;7.18;4.78;;;29.20;65.50;;;;;;4136454;28;20046;-72
2022/01/15 11:14:22;;;;;;;5.28;3.67;;;29.20;65.50;;;;;;4123776;28;20035;-73
2022/01/15 11:16:45;;;;;;;5.45;4.00;;;29.20;65.50;;;;;;4123246;28;20065;-73
2022/01/15 11:19:07;;;;;;;5.90;4.13;;;29.20;65.50;;;;;;4141517;28;20459;-72
2022/01/15 11:21:31;;;;;;;6.43;4.32;;;29.20;65.50;;;;;;4137079;28;20045;-71
2022/01/15 11:23:56;;;;;;;6.53;4.30;;;29.20;65.60;;;;;;4132829;28;20030;-72
2022/01/15 11:26:24;;;;;;;6.95;4.10;;;29.20;65.60;;;;;;4134935;28;20065;-72
2022/01/15 11:28:47;;;;;;;7.18;4.40;;;29.10;65.60;;;;;;4140058;28;20153;-73
2022/01/15 11:31:12;;;;;;;5.72;4.13;;;29.20;65.70;;;;;;4128331;28;20038;-73
2022/01/15 11:33:46;;;;;;;6.65;4.20;;;29.10;65.60;;;;;;4126525;28;20034;-73
2022/01/15 11:36:26;;;;;;;5.88;4.28;;;29.10;65.70;;;;;;4130174;28;20038;-72
2022/01/15 11:38:52;;;;;;;6.22;3.92;;;29.10;65.70;;;;;;4134259;28;20385;-73
2022/01/15 11:41:29;;;;;;;5.43;4.13;;;29.10;66.00;;;;;;4160387;28;20045;-72
2022/01/15 11:43:52;;;;;;;7.97;4.10;;;29.10;65.70;;;;;;4137541;28;20789;-73
2022/01/15 11:46:27;;;;;;;5.55;3.78;;;29.10;65.80;;;;;;4120483;28;21684;-73
2022/01/15 11:48:50;;;;;;;5.53;3.58;;;29.10;65.60;;;;;;4132076;28;20046;-72
2022/01/15 11:51:17;;;;;;;6.32;3.80;;;29.10;65.70;;;;;;4138678;28;20044;-73
2022/01/15 11:53:47;;;;;;;7.00;4.10;;;29.10;65.80;;;;;;4121089;28;20077;-72
2022/01/15 11:56:17;;;;;;;6.60;4.10;;;29.10;66.00;;;;;;4131304;28;20065;-72
2022/01/15 11:58:39;;;;;;;4.35;3.33;;;29.10;66.10;;;;;;4129017;28;20108;-73
2022/01/15 12:01:01;;;;;;;5.97;3.72;;;29.10;66.20;;;;;;4127925;28;20484;-73
2022/01/15 12:03:24;;;;;;;6.80;3.42;;;29.10;66.40;;;;;;4133821;28;20357;-74
2022/01/15 12:05:59;;;;;;;5.78;3.70;;;29.10;66.30;;;;;;4132052;28;20436;-73
2022/01/15 12:08:27;;;;;;;5.53;3.53;;;29.10;66.90;;;;;;4137569;28;20119;-74
2022/01/15 12:10:55;;;;;;;7.03;3.83;;;29.10;65.90;;;;;;4140803;28;20456;-73
2022/01/15 12:13:20;;;;;;;4.70;2.95;;;29.10;66.40;;;;;;4140470;28;20341;-73
2022/01/15 12:15:42;;;;;;;5.53;3.30;;;29.10;66.40;;;;;;4141819;28;20114;-72
2022/01/15 12:18:20;;;;;;;7.72;3.95;;;29.10;66.40;;;;;;4133756;28;20042;-73
2022/01/15 12:20:42;;;;;;;4.93;3.30;;;29.10;66.30;;;;;;4132346;28;20397;-73
2022/01/15 12:23:27;;;;;;;5.90;3.63;;;29.10;66.30;;;;;;4119708;28;20093;-73
2022/01/15 12:25:56;;;;;;;5.88;3.30;;;29.10;66.40;;;;;;4127798;28;20050;-73
2022/01/15 12:28:19;;;;;;;6.65;3.65;;;29.00;66.40;;;;;;4114334;28;20042;-74
2022/01/15 12:30:46;;;;;;;5.32;3.50;;;29.00;66.20;;;;;;4138231;28;20046;-73
2022/01/15 12:33:13;;;;;;;8.00;3.50;;;29.00;66.20;;;;;;4143699;28;20451;-73
2022/01/15 12:35:38;;;;;;;5.05;3.50;;;29.00;66.40;;;;;;4143037;28;20038;-72
2022/01/15 12:38:15;;;;;;;5.45;3.40;;;29.00;65.90;;;;;;4129740;28;20048;-72
2022/01/15 12:40:38;;;;;;;7.07;3.65;;;29.00;66.30;;;;;;4127782;28;20479;-72
2022/01/15 12:43:20;;;;;;;;;;;29.00;66.50;;;;;;4131593;28;20046;-73
2022/01/15 12:45:45;;;;;;;8.75;3.63;;;29.00;66.40;;;;;;4142625;28;20021;-72
2022/01/15 12:48:10;;;;;;;4.63;3.13;;;29.00;66.90;;;;;;4128355;28;20155;-73
2022/01/15 12:50:46;;;;;;;5.22;2.95;;;29.00;66.40;;;;;;4144323;28;20080;-74
2022/01/15 12:53:09;;;;;;;4.90;2.80;;;29.00;66.20;;;;;;4128595;28;20034;-72
2022/01/15 12:55:33;;;;;;;5.43;3.20;;;28.90;66.10;;;;;;4144299;28;20037;-72
2022/01/15 12:57:56;;;;;;;5.68;3.33;;;28.90;66.30;;;;;;4144157;28;20041;-72
2022/01/15 13:00:22;;;;;;;4.55;3.17;;;28.90;66.30;;;;;;4135044;28;20042;-72
2022/01/15 13:02:45;;;;;;;5.05;3.50;;;29.00;66.20;;;;;;4144051;28;20042;-73
2022/01/15 13:05:12;;;;;;;6.55;3.38;;;28.90;66.10;;;;;;4139754;28;20137;-73
2022/01/15 13:07:56;;;;;;;4.55;3.15;;;28.90;66.20;;;;;;4135627;28;20042;-72
2022/01/15 13:10:45;;;;;;;4.60;2.80;;;29.00;65.80;;;;;;4145552;28;20073;-73
2022/01/15 13:13:07;;;;;;;3.80;2.75;;;28.90;66.60;;;;;;4147749;28;20046;-73
2022/01/15 13:15:31;;;;;;;5.03;3.20;;;28.90;66.60;;;;;;4147079;28;20048;-73
2022/01/15 13:17:53;;;;;;;4.80;3.05;;;28.90;66.40;;;;;;4146817;28;20038;-73
2022/01/15 13:20:49;;;;;;;4.68;2.85;;;28.90;66.20;;;;;;4131326;28;20043;-73
2022/01/15 13:23:12;;;;;;;4.47;3.05;;;28.90;66.20;;;;;;4099106;28;20139;-73
2022/01/15 13:25:35;;;;;;;4.57;2.75;;;28.90;66.30;;;;;;4139402;28;20045;-73
2022/01/15 13:27:58;;;;;;;5.35;2.70;;;28.90;66.10;;;;;;4137005;28;20641;-73
2022/01/15 13:30:21;;;;;;;5.20;3.00;;;28.90;66.20;;;;;;4144046;28;20511;-73
2022/01/15 13:33:05;;;;;;;4.95;3.08;;;28.80;66.30;;;;;;4143363;28;20128;-73
2022/01/15 13:35:39;;;;;;;4.63;2.95;;;28.80;66.10;;;;;;4131789;28;20161;-73
2022/01/15 13:38:05;;;;;;;5.00;3.25;;;28.80;66.10;;;;;;4134605;28;20348;-72
2022/01/15 13:40:33;;;;;;;5.32;3.28;;;28.80;66.10;;;;;;4133496;28;20045;-71
2022/01/15 13:42:55;;;;;;;3.88;2.75;;;28.80;66.40;;;;;;4131247;28;20424;-72
2022/01/15 13:45:18;;;;;;;5.03;2.90;;;28.80;66.10;;;;;;4135420;28;20046;-72
2022/01/15 13:47:40;;;;;;;5.65;3.22;;;28.80;66.10;;;;;;4142159;28;20089;-72
2022/01/15 13:53:06;;;;;;;5.10;3.00;;;28.80;66.30;;;;;;4123433;28;20045;-72
2022/01/15 13:55:30;;;;;;;4.40;2.78;;;28.80;66.20;;;;;;4122680;28;20089;-73